Hildegaard — C6QU3 — position and weather

sailwx.info

Track history (hours):
 
Tides and Currents Weather Stations Pressure Air Temp Water Temp Dewpoint Dewpoint Depression Visibility Wind Speed Wind Dir Waves Ship Positions

Hildegaard

Last reported at 2016-May-30 04:32 UTC. Time now 2016-May-30 04:59 UTC.
Position N 53°24' W 004°09'.

Length 248 m; draft 8.6 m.

Type: Ship (hazmat cat A). MMSI: 308574000.

Date/timePositionNaut miles runAvg speedWind from/ knotsBaromVisibWave heightAir tempDewpointWater temp
2016-May-30 04:32N 53°24' W 004°09'0 0.1
2016-May-30 03:32N 53°24' W 004°09'0 0.0
2016-May-29 21:26N 53°24' W 004°09'0 0.0
2016-May-29 20:05N 53°24' W 004°09'0 0.0
2016-May-29 19:32N 53°24' W 004°09'0 0.0
2016-May-29 18:32N 53°24' W 004°09'0 0.0
2016-May-29 17:32N 53°24' W 004°09'0 0.1
2016-May-29 16:29N 53°24' W 004°09'0 0.1
2016-May-29 15:32N 53°24' W 004°09'0 0.0
2016-May-29 13:32N 53°24' W 004°09'0 0.0
2016-May-29 12:08N 53°24' W 004°09'0 0.1
2016-May-29 11:17N 53°24' W 004°09'0 0.2
2016-May-29 10:29N 53°24' W 004°09'0 0.1
2016-May-29 09:32N 53°24' W 004°09'0 0.0
2016-May-29 08:32N 53°24' W 004°09'0 0.0
2016-May-29 07:32N 53°24' W 004°09'0 0.0
2016-May-29 06:29N 53°24' W 004°09'0 0.0
2016-May-29 05:32N 53°24' W 004°09'0 0.0
2016-May-29 04:32N 53°24' W 004°09'0 0.1
2016-May-29 03:26N 53°24' W 004°09'0 0.1
2016-May-29 01:20N 53°24' W 004°09'0 0.1
2016-May-28 22:14N 53°24' W 004°09'0 0.2
2016-May-28 21:29N 53°24' W 004°09'0 0.0
2016-May-28 20:32N 53°24' W 004°09'0 0.0
2016-May-28 19:32N 53°24' W 004°09'0 0.0
2016-May-28 18:32N 53°24' W 004°09'0 0.0
2016-May-28 17:29N 53°24' W 004°09'0 0.0
2016-May-28 16:29N 53°24' W 004°09'0 0.0
2016-May-28 15:29N 53°24' W 004°09'0 0.1
2016-May-28 12:26N 53°24' W 004°09'0 0.1
2016-May-28 09:20N 53°24' W 004°09'0 0.0
2016-May-28 08:32N 53°24' W 004°09'0 0.0
2016-May-28 07:32N 53°24' W 004°09'0 0.0
2016-May-28 05:29N 53°24' W 004°09'0 0.0
2016-May-28 04:32N 53°24' W 004°09'0 0.0
2016-May-28 03:32N 53°24' W 004°09'0 0.0
2016-May-27 20:29N 53°24' W 004°09'0 0.1
2016-May-27 19:26N 53°24' W 004°09'0 0.0
2016-May-27 18:32N 53°24' W 004°09'0 0.0
2016-May-27 17:32N 53°24' W 004°09'0 0.0
2016-May-27 16:29N 53°24' W 004°09'0 0.1
2016-May-27 15:29N 53°24' W 004°09'0 0.0
2016-May-27 14:32N 53°24' W 004°09'0 0.0
2016-May-27 09:32N 53°24' W 004°09'0 0.0
2016-May-27 08:29N 53°24' W 004°09'0 0.0
2016-May-27 07:26N 53°24' W 004°09'0 0.0
2016-May-27 06:32N 53°24' W 004°09'0 0.0
2016-May-27 05:32N 53°24' W 004°09'0 0.0
2016-May-27 04:14N 53°24' W 004°09'0 0.0
2016-May-27 03:32N 53°24' W 004°09'0 0.0
2016-May-27 02:32N 53°24' W 004°09'0 0.0
2016-May-26 20:14N 53°24' W 004°09'0 0.1
2016-May-26 19:20N 53°24' W 004°09'0 0.0
2016-May-26 17:20N 53°24' W 004°09'0 0.0
2016-May-26 15:32N 53°24' W 004°09'0 0.0
2016-May-26 08:14N 53°24' W 004°09'0 0.1
2016-May-26 07:29N 53°24' W 004°09'0 0.0
2016-May-26 06:20N 53°24' W 004°09'0 0.0
2016-May-26 05:20N 53°24' W 004°09'0 0.0
2016-May-26 03:32N 53°24' W 004°09'0 0.2
2016-May-26 02:32N 53°24' W 004°09'11 8.3
2016-May-26 01:15N 53°29' W 003°54'810.8
2016-May-26 00:33N 53°33' W 003°43'1010.4
2016-May-25 23:33N 53°33' W 003°25'9 8.5
2016-May-25 22:33N 53°32' W 003°11'8 8.5
2016-May-25 21:33N 53°26' W 003°01'3 3.0
2016-May-25 20:33N 53°23' W 003°00'0 0.0
2016-May-25 19:31N 53°23' W 003°00'0 0.0
2016-May-25 18:31N 53°23' W 003°00'0 0.0
2016-May-25 17:31N 53°23' W 003°00'0 0.0
2016-May-25 16:31N 53°23' W 003°00'0 0.0
2016-May-25 15:31N 53°23' W 003°00'0 0.0
2016-May-25 14:31N 53°23' W 003°00'0 0.0
2016-May-25 13:31N 53°23' W 003°00'0 0.0
2016-May-25 12:28N 53°23' W 003°00'0 0.0
2016-May-25 11:31N 53°23' W 003°00'0 0.0
2016-May-25 10:31N 53°23' W 003°00'0 0.0
2016-May-25 09:31N 53°23' W 003°00'0 0.0
2016-May-25 08:31N 53°23' W 003°00'0 0.0
2016-May-25 07:28N 53°23' W 003°00'0 0.0
2016-May-25 06:31N 53°23' W 003°00'0 0.0
2016-May-25 05:31N 53°23' W 003°00'0 0.0
2016-May-25 04:31N 53°23' W 003°00'0 0.0
2016-May-25 03:28N 53°23' W 003°00'0 0.0
2016-May-25 02:28N 53°23' W 003°00'0 0.0
2016-May-25 01:31N 53°23' W 003°00'0 0.0
2016-May-25 00:31N 53°23' W 003°00'0 0.0
2016-May-24 23:31N 53°23' W 003°00'0 0.0
2016-May-24 22:31N 53°23' W 003°00'0 0.0
2016-May-24 21:31N 53°23' W 003°00'0 0.0
2016-May-24 20:31N 53°23' W 003°00'0 0.0
2016-May-24 19:31N 53°23' W 003°00'0 0.0
2016-May-24 18:31N 53°23' W 003°00'0 0.0
2016-May-24 17:31N 53°23' W 003°00'0 0.0
2016-May-24 16:31N 53°23' W 003°00'0 0.0
2016-May-24 15:31N 53°23' W 003°00'0 0.0
2016-May-24 14:31N 53°23' W 003°00'0 0.0
2016-May-24 13:28N 53°23' W 003°00'0 0.4
2016-May-24 12:34N 53°23' W 003°00'6 6.1
2016-May-24 11:34N 53°29' W 003°05'8 7.6
2016-May-24 10:33N 53°31' W 003°17'1212.1
2016-May-24 09:33N 53°31' W 003°37'1312.5
2016-May-24 08:33N 53°29' W 003°58'8 1.9
2016-May-24 04:17N 53°24' W 004°09'0 0.0
2016-May-24 03:29N 53°24' W 004°09'0 0.0
2016-May-24 02:32N 53°24' W 004°09'0 0.0
2016-May-24 01:29N 53°24' W 004°09'0 0.0
2016-May-24 00:32N 53°24' W 004°09'1 0.6
2016-May-23 23:33N 53°25' W 004°10'1111.2
2016-May-23 22:33N 53°33' W 004°21'1312.6
2016-May-23 21:33N 53°43' W 004°35'1512.0
2016-May-23 20:17N 53°55' W 004°52'911.7
2016-May-23 19:33N 54°01' W 005°01'1211.8
2016-May-23 18:31N 54°13' W 005°06'1111.9
2016-May-23 17:33N 54°24' W 005°12'1110.9
2016-May-23 16:33N 54°35' W 005°16'1010.1
2016-May-23 15:33N 54°44' W 005°21'10 9.8
2016-May-23 14:33N 54°53' W 005°31'2110.5
2016-May-23 12:33N 55°10' W 005°52'1212.4
2016-May-23 11:33N 55°20' W 006°05'1212.3
2016-May-23 10:33N 55°23' W 006°26'1413.7
2016-May-23 09:34N 55°34' W 006°41'1414.2
2016-May-23 08:33N 55°45' W 006°56'  
Track history (hours):
 
Tides and Currents Weather Stations Pressure Air Temp Water Temp Dewpoint Dewpoint Depression Visibility Wind Speed Wind Dir Waves Ship Positions

Hildegaard

Last reported at 2016-May-30 04:32 UTC. Time now 2016-May-30 04:59 UTC.
Position N 53°24' W 004°09'.

Length 248 m; draft 8.6 m.

Type: Ship (hazmat cat A). MMSI: 308574000.

Date/timePositionNaut miles runAvg speedWind from/ knotsBaromVisibWave heightAir tempDewpointWater temp
2016-May-30 04:32N 53°24' W 004°09'0 0.1
2016-May-30 03:32N 53°24' W 004°09'0 0.0
2016-May-29 21:26N 53°24' W 004°09'0 0.0
2016-May-29 20:05N 53°24' W 004°09'0 0.0
2016-May-29 19:32N 53°24' W 004°09'0 0.0
2016-May-29 18:32N 53°24' W 004°09'0 0.0
2016-May-29 17:32N 53°24' W 004°09'0 0.1
2016-May-29 16:29N 53°24' W 004°09'0 0.1
2016-May-29 15:32N 53°24' W 004°09'0 0.0
2016-May-29 13:32N 53°24' W 004°09'0 0.0
2016-May-29 12:08N 53°24' W 004°09'0 0.1
2016-May-29 11:17N 53°24' W 004°09'0 0.2
2016-May-29 10:29N 53°24' W 004°09'0 0.1
2016-May-29 09:32N 53°24' W 004°09'0 0.0
2016-May-29 08:32N 53°24' W 004°09'0 0.0
2016-May-29 07:32N 53°24' W 004°09'0 0.0
2016-May-29 06:29N 53°24' W 004°09'0 0.0
2016-May-29 05:32N 53°24' W 004°09'0 0.0
2016-May-29 04:32N 53°24' W 004°09'0 0.1
2016-May-29 03:26N 53°24' W 004°09'0 0.1
2016-May-29 01:20N 53°24' W 004°09'0 0.1
2016-May-28 22:14N 53°24' W 004°09'0 0.2
2016-May-28 21:29N 53°24' W 004°09'0 0.0
2016-May-28 20:32N 53°24' W 004°09'0 0.0
2016-May-28 19:32N 53°24' W 004°09'0 0.0
2016-May-28 18:32N 53°24' W 004°09'0 0.0
2016-May-28 17:29N 53°24' W 004°09'0 0.0
2016-May-28 16:29N 53°24' W 004°09'0 0.0
2016-May-28 15:29N 53°24' W 004°09'0 0.1
2016-May-28 12:26N 53°24' W 004°09'0 0.1
2016-May-28 09:20N 53°24' W 004°09'0 0.0
2016-May-28 08:32N 53°24' W 004°09'0 0.0
2016-May-28 07:32N 53°24' W 004°09'0 0.0
2016-May-28 05:29N 53°24' W 004°09'0 0.0
2016-May-28 04:32N 53°24' W 004°09'0 0.0
2016-May-28 03:32N 53°24' W 004°09'0 0.0
2016-May-27 20:29N 53°24' W 004°09'0 0.1
2016-May-27 19:26N 53°24' W 004°09'0 0.0
2016-May-27 18:32N 53°24' W 004°09'0 0.0
2016-May-27 17:32N 53°24' W 004°09'0 0.0
2016-May-27 16:29N 53°24' W 004°09'0 0.1
2016-May-27 15:29N 53°24' W 004°09'0 0.0
2016-May-27 14:32N 53°24' W 004°09'0 0.0
2016-May-27 09:32N 53°24' W 004°09'0 0.0
2016-May-27 08:29N 53°24' W 004°09'0 0.0
2016-May-27 07:26N 53°24' W 004°09'0 0.0
2016-May-27 06:32N 53°24' W 004°09'0 0.0
2016-May-27 05:32N 53°24' W 004°09'0 0.0
2016-May-27 04:14N 53°24' W 004°09'0 0.0
2016-May-27 03:32N 53°24' W 004°09'0 0.0
2016-May-27 02:32N 53°24' W 004°09'0 0.0
2016-May-26 20:14N 53°24' W 004°09'0 0.1
2016-May-26 19:20N 53°24' W 004°09'0 0.0
2016-May-26 17:20N 53°24' W 004°09'0 0.0
2016-May-26 15:32N 53°24' W 004°09'0 0.0
2016-May-26 08:14N 53°24' W 004°09'0 0.1
2016-May-26 07:29N 53°24' W 004°09'0 0.0
2016-May-26 06:20N 53°24' W 004°09'0 0.0
2016-May-26 05:20N 53°24' W 004°09'0 0.0
2016-May-26 03:32N 53°24' W 004°09'0 0.2
2016-May-26 02:32N 53°24' W 004°09'11 8.3
2016-May-26 01:15N 53°29' W 003°54'810.8
2016-May-26 00:33N 53°33' W 003°43'1010.4
2016-May-25 23:33N 53°33' W 003°25'9 8.5
2016-May-25 22:33N 53°32' W 003°11'8 8.5
2016-May-25 21:33N 53°26' W 003°01'3 3.0
2016-May-25 20:33N 53°23' W 003°00'0 0.0
2016-May-25 19:31N 53°23' W 003°00'0 0.0
2016-May-25 18:31N 53°23' W 003°00'0 0.0
2016-May-25 17:31N 53°23' W 003°00'0 0.0
2016-May-25 16:31N 53°23' W 003°00'0 0.0
2016-May-25 15:31N 53°23' W 003°00'0 0.0
2016-May-25 14:31N 53°23' W 003°00'0 0.0
2016-May-25 13:31N 53°23' W 003°00'0 0.0
2016-May-25 12:28N 53°23' W 003°00'0 0.0
2016-May-25 11:31N 53°23' W 003°00'0 0.0
2016-May-25 10:31N 53°23' W 003°00'0 0.0
2016-May-25 09:31N 53°23' W 003°00'0 0.0
2016-May-25 08:31N 53°23' W 003°00'0 0.0
2016-May-25 07:28N 53°23' W 003°00'0 0.0
2016-May-25 06:31N 53°23' W 003°00'0 0.0
2016-May-25 05:31N 53°23' W 003°00'0 0.0
2016-May-25 04:31N 53°23' W 003°00'0 0.0
2016-May-25 03:28N 53°23' W 003°00'0 0.0
2016-May-25 02:28N 53°23' W 003°00'0 0.0
2016-May-25 01:31N 53°23' W 003°00'0 0.0
2016-May-25 00:31N 53°23' W 003°00'0 0.0
2016-May-24 23:31N 53°23' W 003°00'0 0.0
2016-May-24 22:31N 53°23' W 003°00'0 0.0
2016-May-24 21:31N 53°23' W 003°00'0 0.0
2016-May-24 20:31N 53°23' W 003°00'0 0.0
2016-May-24 19:31N 53°23' W 003°00'0 0.0
2016-May-24 18:31N 53°23' W 003°00'0 0.0
2016-May-24 17:31N 53°23' W 003°00'0 0.0
2016-May-24 16:31N 53°23' W 003°00'0 0.0
2016-May-24 15:31N 53°23' W 003°00'0 0.0
2016-May-24 14:31N 53°23' W 003°00'0 0.0
2016-May-24 13:28N 53°23' W 003°00'0 0.4
2016-May-24 12:34N 53°23' W 003°00'6 6.1
2016-May-24 11:34N 53°29' W 003°05'8 7.6
2016-May-24 10:33N 53°31' W 003°17'1212.1
2016-May-24 09:33N 53°31' W 003°37'1312.5
2016-May-24 08:33N 53°29' W 003°58'8 1.9
2016-May-24 04:17N 53°24' W 004°09'0 0.0
2016-May-24 03:29N 53°24' W 004°09'0 0.0
2016-May-24 02:32N 53°24' W 004°09'0 0.0
2016-May-24 01:29N 53°24' W 004°09'0 0.0
2016-May-24 00:32N 53°24' W 004°09'1 0.6
2016-May-23 23:33N 53°25' W 004°10'1111.2
2016-May-23 22:33N 53°33' W 004°21'1312.6
2016-May-23 21:33N 53°43' W 004°35'1512.0
2016-May-23 20:17N 53°55' W 004°52'911.7
2016-May-23 19:33N 54°01' W 005°01'1211.8
2016-May-23 18:31N 54°13' W 005°06'1111.9
2016-May-23 17:33N 54°24' W 005°12'1110.9
2016-May-23 16:33N 54°35' W 005°16'1010.1
2016-May-23 15:33N 54°44' W 005°21'10 9.8
2016-May-23 14:33N 54°53' W 005°31'2110.5
2016-May-23 12:33N 55°10' W 005°52'1212.4
2016-May-23 11:33N 55°20' W 006°05'1212.3
2016-May-23 10:33N 55°23' W 006°26'1413.7
2016-May-23 09:34N 55°34' W 006°41'1414.2
2016-May-23 08:33N 55°45' W 006°56'  

Dump ship's entire track history